sensor_id;sensor_type;location;lat;lon;timestamp;pressure;altitude;pressure_sealevel;temperature;humidity
76260;BME280;65076;52.362;6.588;2023-07-31T00:01:04;100918.56;;;16.61;83.74
76260;BME280;65076;52.362;6.588;2023-07-31T00:03:32;100910.69;;;16.69;83.75
76260;BME280;65076;52.362;6.588;2023-07-31T00:06:00;100909.47;;;16.47;84.17
76260;BME280;65076;52.362;6.588;2023-07-31T00:08:28;100898.31;;;16.25;85.43
76260;BME280;65076;52.362;6.588;2023-07-31T00:10:56;100904.88;;;16.35;85.47
76260;BME280;65076;52.362;6.588;2023-07-31T00:13:26;100909.56;;;16.33;85.94
76260;BME280;65076;52.362;6.588;2023-07-31T00:15:54;100909.56;;;16.21;86.90
76260;BME280;65076;52.362;6.588;2023-07-31T00:18:22;100899.97;;;16.40;85.80
76260;BME280;65076;52.362;6.588;2023-07-31T00:20:50;100894.63;;;16.26;86.82
76260;BME280;65076;52.362;6.588;2023-07-31T00:23:18;100899.09;;;16.40;87.09
76260;BME280;65076;52.362;6.588;2023-07-31T00:25:46;100895.69;;;16.24;87.70
76260;BME280;65076;52.362;6.588;2023-07-31T00:28:13;100902.03;;;16.24;89.00
76260;BME280;65076;52.362;6.588;2023-07-31T00:30:43;100900.06;;;16.01;88.72
76260;BME280;65076;52.362;6.588;2023-07-31T00:33:11;100902.88;;;16.12;89.69
76260;BME280;65076;52.362;6.588;2023-07-31T00:35:39;100896.25;;;16.16;89.67
76260;BME280;65076;52.362;6.588;2023-07-31T00:38:07;100893.09;;;16.22;89.32
76260;BME280;65076;52.362;6.588;2023-07-31T00:40:36;100893.09;;;16.47;88.78
76260;BME280;65076;52.362;6.588;2023-07-31T00:43:04;100896.00;;;16.44;88.10
76260;BME280;65076;52.362;6.588;2023-07-31T00:45:32;100887.19;;;16.41;87.98
76260;BME280;65076;52.362;6.588;2023-07-31T00:48:02;100876.03;;;16.19;88.73
76260;BME280;65076;52.362;6.588;2023-07-31T00:50:33;100877.44;;;16.49;88.50
76260;BME280;65076;52.362;6.588;2023-07-31T00:53:02;100879.84;;;16.29;88.36
76260;BME280;65076;52.362;6.588;2023-07-31T00:55:30;100878.22;;;16.39;88.32
76260;BME280;65076;52.362;6.588;2023-07-31T00:57:59;100872.78;;;16.64;87.89
76260;BME280;65076;52.362;6.588;2023-07-31T01:00:26;100870.03;;;16.51;87.47
76260;BME280;65076;52.362;6.588;2023-07-31T01:02:54;100860.09;;;16.25;87.93
76260;BME280;65076;52.362;6.588;2023-07-31T01:05:31;100866.66;;;16.35;88.08
76260;BME280;65076;52.362;6.588;2023-07-31T01:08:12;100866.88;;;16.32;88.83
76260;BME280;65076;52.362;6.588;2023-07-31T01:10:49;100857.34;;;16.50;89.31
76260;BME280;65076;52.362;6.588;2023-07-31T01:13:22;100842.78;;;16.75;88.08
76260;BME280;65076;52.362;6.588;2023-07-31T01:15:51;100843.66;;;16.76;86.77
76260;BME280;65076;52.362;6.588;2023-07-31T01:18:19;100853.19;;;16.58;87.77
76260;BME280;65076;52.362;6.588;2023-07-31T01:20:52;100848.19;;;16.64;87.98
76260;BME280;65076;52.362;6.588;2023-07-31T01:23:36;100854.72;;;16.49;88.64
76260;BME280;65076;52.362;6.588;2023-07-31T01:26:30;100854.50;;;16.52;89.10
76260;BME280;65076;52.362;6.588;2023-07-31T01:29:05;100846.91;;;16.93;87.10
76260;BME280;65076;52.362;6.588;2023-07-31T01:31:38;100853.84;;;16.61;87.82
76260;BME280;65076;52.362;6.588;2023-07-31T01:34:10;100853.41;;;16.80;87.00
76260;BME280;65076;52.362;6.588;2023-07-31T01:36:41;100841.63;;;16.67;88.21
76260;BME280;65076;52.362;6.588;2023-07-31T01:39:09;100843.66;;;16.76;87.93
76260;BME280;65076;52.362;6.588;2023-07-31T01:41:38;100842.81;;;16.63;87.99
76260;BME280;65076;52.362;6.588;2023-07-31T01:44:06;100840.81;;;16.77;88.55
76260;BME280;65076;52.362;6.588;2023-07-31T01:46:34;100828.47;;;16.84;87.95
76260;BME280;65076;52.362;6.588;2023-07-31T01:49:03;100829.53;;;16.82;87.81
76260;BME280;65076;52.362;6.588;2023-07-31T01:51:32;100825.25;;;16.90;87.73
76260;BME280;65076;52.362;6.588;2023-07-31T01:54:00;100827.13;;;16.90;87.75
76260;BME280;65076;52.362;6.588;2023-07-31T01:56:28;100822.19;;;16.95;87.98
76260;BME280;65076;52.362;6.588;2023-07-31T01:58:58;100811.47;;;16.92;88.04
76260;BME280;65076;52.362;6.588;2023-07-31T02:01:26;100817.22;;;16.76;87.55
76260;BME280;65076;52.362;6.588;2023-07-31T02:03:54;100812.16;;;16.83;88.48
76260;BME280;65076;52.362;6.588;2023-07-31T02:06:22;100808.00;;;16.90;88.16
76260;BME280;65076;52.362;6.588;2023-07-31T02:08:50;100799.94;;;16.76;88.00
76260;BME280;65076;52.362;6.588;2023-07-31T02:11:18;100807.19;;;17.01;87.72
76260;BME280;65076;52.362;6.588;2023-07-31T02:13:46;100793.16;;;17.05;88.43
76260;BME280;65076;52.362;6.588;2023-07-31T02:16:15;100792.16;;;16.82;88.65
76260;BME280;65076;52.362;6.588;2023-07-31T02:18:43;100793.28;;;16.80;89.30
76260;BME280;65076;52.362;6.588;2023-07-31T02:21:11;100789.31;;;17.08;88.41
76260;BME280;65076;52.362;6.588;2023-07-31T02:23:39;100782.59;;;17.01;88.43
76260;BME280;65076;52.362;6.588;2023-07-31T02:26:07;100784.88;;;17.18;87.54
76260;BME280;65076;52.362;6.588;2023-07-31T02:28:35;100786.50;;;16.97;88.37
76260;BME280;65076;52.362;6.588;2023-07-31T02:31:04;100778.66;;;16.92;88.81
76260;BME280;65076;52.362;6.588;2023-07-31T02:33:33;100776.47;;;17.21;88.88
76260;BME280;65076;52.362;6.588;2023-07-31T02:36:01;100775.00;;;17.04;88.06
76260;BME280;65076;52.362;6.588;2023-07-31T02:38:29;100774.56;;;17.10;87.66
76260;BME280;65076;52.362;6.588;2023-07-31T02:40:57;100767.25;;;17.57;86.79
76260;BME280;65076;52.362;6.588;2023-07-31T02:43:25;100767.69;;;17.63;86.09
76260;BME280;65076;52.362;6.588;2023-07-31T02:45:53;100769.34;;;17.18;86.96
76260;BME280;65076;52.362;6.588;2023-07-31T02:48:21;100762.94;;;17.30;87.45
76260;BME280;65076;52.362;6.588;2023-07-31T02:50:50;100768.00;;;17.24;87.40
76260;BME280;65076;52.362;6.588;2023-07-31T02:53:18;100769.97;;;17.22;88.23
76260;BME280;65076;52.362;6.588;2023-07-31T02:55:46;100767.53;;;17.06;88.16
76260;BME280;65076;52.362;6.588;2023-07-31T02:58:14;100760.41;;;16.92;89.23
76260;BME280;65076;52.362;6.588;2023-07-31T03:00:42;100765.53;;;16.97;89.46
76260;BME280;65076;52.362;6.588;2023-07-31T03:03:10;100753.84;;;16.95;90.06
76260;BME280;65076;52.362;6.588;2023-07-31T03:05:38;100749.34;;;17.18;89.40
76260;BME280;65076;52.362;6.588;2023-07-31T03:08:08;100749.47;;;16.92;89.40
76260;BME280;65076;52.362;6.588;2023-07-31T03:10:36;100749.00;;;16.99;90.49
76260;BME280;65076;52.362;6.588;2023-07-31T03:13:04;100751.75;;;16.99;91.24
76260;BME280;65076;52.362;6.588;2023-07-31T03:15:31;100756.31;;;17.22;90.84
76260;BME280;65076;52.362;6.588;2023-07-31T03:17:59;100767.38;;;16.97;89.90
76260;BME280;65076;52.362;6.588;2023-07-31T03:20:27;100763.56;;;16.99;91.39
76260;BME280;65076;52.362;6.588;2023-07-31T03:22:55;100749.34;;;17.18;90.24
76260;BME280;65076;52.362;6.588;2023-07-31T03:25:25;100752.47;;;17.24;89.91
76260;BME280;65076;52.362;6.588;2023-07-31T03:27:53;100760.50;;;16.91;91.91
76260;BME280;65076;52.362;6.588;2023-07-31T03:30:21;100760.56;;;17.26;91.11
76260;BME280;65076;52.362;6.588;2023-07-31T03:32:49;100758.78;;;17.14;91.68
76260;BME280;65076;52.362;6.588;2023-07-31T03:35:17;100764.53;;;17.57;90.20
76260;BME280;65076;52.362;6.588;2023-07-31T03:37:45;100760.44;;;17.27;90.53
76260;BME280;65076;52.362;6.588;2023-07-31T03:40:14;100755.03;;;17.50;89.68
76260;BME280;65076;52.362;6.588;2023-07-31T03:42:43;100747.41;;;17.31;89.68
76260;BME280;65076;52.362;6.588;2023-07-31T03:45:11;100750.41;;;17.39;89.74
76260;BME280;65076;52.362;6.588;2023-07-31T03:47:39;100758.34;;;17.31;90.29
76260;BME280;65076;52.362;6.588;2023-07-31T03:50:07;100754.06;;;17.51;89.39
76260;BME280;65076;52.362;6.588;2023-07-31T03:52:35;100753.06;;;17.52;88.78
76260;BME280;65076;52.362;6.588;2023-07-31T03:55:04;100750.19;;;17.42;89.65
76260;BME280;65076;52.362;6.588;2023-07-31T03:57:32;100755.56;;;17.55;89.61
76260;BME280;65076;52.362;6.588;2023-07-31T04:00:02;100756.75;;;17.40;89.35
76260;BME280;65076;52.362;6.588;2023-07-31T04:02:31;100746.53;;;17.30;90.84
76260;BME280;65076;52.362;6.588;2023-07-31T04:04:59;100749.69;;;17.37;90.42
76260;BME280;65076;52.362;6.588;2023-07-31T04:07:27;100746.44;;;17.32;90.73
76260;BME280;65076;52.362;6.588;2023-07-31T04:09:55;100748.94;;;17.46;90.51
76260;BME280;65076;52.362;6.588;2023-07-31T04:12:23;100750.44;;;17.50;90.08
76260;BME280;65076;52.362;6.588;2023-07-31T04:14:51;100742.75;;;17.55;90.37
76260;BME280;65076;52.362;6.588;2023-07-31T04:17:20;100745.94;;;17.38;90.14
76260;BME280;65076;52.362;6.588;2023-07-31T04:19:48;100745.09;;;17.38;89.92
76260;BME280;65076;52.362;6.588;2023-07-31T04:22:16;100745.22;;;17.47;90.17
76260;BME280;65076;52.362;6.588;2023-07-31T04:24:44;100741.09;;;17.42;89.76
76260;BME280;65076;52.362;6.588;2023-07-31T04:27:12;100740.78;;;17.57;89.14
76260;BME280;65076;52.362;6.588;2023-07-31T04:29:40;100742.19;;;17.63;88.86
76260;BME280;65076;52.362;6.588;2023-07-31T04:32:10;100727.56;;;17.51;88.79
76260;BME280;65076;52.362;6.588;2023-07-31T04:34:40;100740.78;;;17.57;89.16
76260;BME280;65076;52.362;6.588;2023-07-31T04:37:08;100739.69;;;17.60;88.43
76260;BME280;65076;52.362;6.588;2023-07-31T04:39:36;100741.78;;;17.21;89.45
76260;BME280;65076;52.362;6.588;2023-07-31T04:42:04;100731.88;;;17.31;89.92
76260;BME280;65076;52.362;6.588;2023-07-31T04:44:32;100737.09;;;17.34;89.93
76260;BME280;65076;52.362;6.588;2023-07-31T04:47:00;100736.47;;;17.31;89.76
76260;BME280;65076;52.362;6.588;2023-07-31T04:49:28;100732.66;;;17.45;89.35
76260;BME280;65076;52.362;6.588;2023-07-31T04:51:58;100734.16;;;17.38;89.84
76260;BME280;65076;52.362;6.588;2023-07-31T04:54:26;100724.44;;;17.45;89.10
76260;BME280;65076;52.362;6.588;2023-07-31T04:56:54;100726.16;;;17.34;89.40
76260;BME280;65076;52.362;6.588;2023-07-31T04:59:23;100721.44;;;17.36;89.42
76260;BME280;65076;52.362;6.588;2023-07-31T05:01:51;100722.78;;;17.66;87.74
76260;BME280;65076;52.362;6.588;2023-07-31T05:04:19;100724.19;;;17.36;88.71
76260;BME280;65076;52.362;6.588;2023-07-31T05:06:47;100716.00;;;17.48;88.57
76260;BME280;65076;52.362;6.588;2023-07-31T05:09:16;100715.47;;;17.31;88.87
76260;BME280;65076;52.362;6.588;2023-07-31T05:11:44;100711.47;;;17.24;88.69
76260;BME280;65076;52.362;6.588;2023-07-31T05:14:13;100707.53;;;17.40;88.10
76260;BME280;65076;52.362;6.588;2023-07-31T05:16:42;100709.25;;;17.29;89.18
76260;BME280;65076;52.362;6.588;2023-07-31T05:19:10;100710.59;;;17.24;88.18
76260;BME280;65076;52.362;6.588;2023-07-31T05:21:38;100707.50;;;17.28;88.61
76260;BME280;65076;52.362;6.588;2023-07-31T05:24:06;100713.59;;;17.32;88.48
76260;BME280;65076;52.362;6.588;2023-07-31T05:26:36;100708.25;;;17.30;88.04
76260;BME280;65076;52.362;6.588;2023-07-31T05:29:04;100716.34;;;17.43;88.06
76260;BME280;65076;52.362;6.588;2023-07-31T05:31:32;100703.03;;;17.38;87.28
76260;BME280;65076;52.362;6.588;2023-07-31T05:34:00;100707.63;;;17.27;88.43
76260;BME280;65076;52.362;6.588;2023-07-31T05:36:28;100710.88;;;17.32;87.67
76260;BME280;65076;52.362;6.588;2023-07-31T05:38:56;100702.94;;;17.51;87.30
76260;BME280;65076;52.362;6.588;2023-07-31T05:41:24;100704.16;;;17.36;86.16
76260;BME280;65076;52.362;6.588;2023-07-31T05:43:54;100701.72;;;17.55;86.15
76260;BME280;65076;52.362;6.588;2023-07-31T05:46:22;100703.78;;;17.41;86.04
76260;BME280;65076;52.362;6.588;2023-07-31T05:48:50;100703.75;;;17.29;86.85
76260;BME280;65076;52.362;6.588;2023-07-31T05:51:18;100707.03;;;17.46;86.36
76260;BME280;65076;52.362;6.588;2023-07-31T05:53:45;100704.88;;;17.62;86.69
76260;BME280;65076;52.362;6.588;2023-07-31T05:56:14;100707.94;;;17.57;86.66
76260;BME280;65076;52.362;6.588;2023-07-31T05:58:41;100699.66;;;17.81;84.64
76260;BME280;65076;52.362;6.588;2023-07-31T06:01:11;100697.16;;;17.67;84.67
76260;BME280;65076;52.362;6.588;2023-07-31T06:03:39;100691.44;;;17.70;84.31
76260;BME280;65076;52.362;6.588;2023-07-31T06:06:07;100688.22;;;17.98;84.26
76260;BME280;65076;52.362;6.588;2023-07-31T06:08:35;100689.59;;;17.93;83.66
76260;BME280;65076;52.362;6.588;2023-07-31T06:11:03;100685.22;;;18.12;83.23
76260;BME280;65076;52.362;6.588;2023-07-31T06:13:32;100695.94;;;18.04;83.06
76260;BME280;65076;52.362;6.588;2023-07-31T06:16:01;100696.94;;;17.92;83.04
76260;BME280;65076;52.362;6.588;2023-07-31T06:18:33;100687.44;;;17.85;83.98
76260;BME280;65076;52.362;6.588;2023-07-31T06:21:01;100691.31;;;17.60;85.14
76260;BME280;65076;52.362;6.588;2023-07-31T06:23:29;100682.72;;;17.65;85.56
76260;BME280;65076;52.362;6.588;2023-07-31T06:25:57;100677.72;;;17.48;86.25
76260;BME280;65076;52.362;6.588;2023-07-31T06:28:27;100684.19;;;17.58;86.96
76260;BME280;65076;52.362;6.588;2023-07-31T06:30:56;100684.19;;;17.58;85.96
76260;BME280;65076;52.362;6.588;2023-07-31T06:33:24;100675.31;;;17.43;85.72
76260;BME280;65076;52.362;6.588;2023-07-31T06:35:54;100670.22;;;17.50;85.63
76260;BME280;65076;52.362;6.588;2023-07-31T06:38:24;100673.91;;;17.61;85.31
76260;BME280;65076;52.362;6.588;2023-07-31T06:40:53;100669.03;;;17.65;85.42
76260;BME280;65076;52.362;6.588;2023-07-31T06:43:21;100679.94;;;17.43;86.14
76260;BME280;65076;52.362;6.588;2023-07-31T06:45:49;100678.56;;;17.37;86.54
76260;BME280;65076;52.362;6.588;2023-07-31T06:48:18;100670.31;;;17.26;87.47
76260;BME280;65076;52.362;6.588;2023-07-31T06:50:46;100668.38;;;17.50;87.16
76260;BME280;65076;52.362;6.588;2023-07-31T06:53:15;100671.22;;;17.38;87.61
76260;BME280;65076;52.362;6.588;2023-07-31T06:55:43;100667.19;;;17.65;87.75
76260;BME280;65076;52.362;6.588;2023-07-31T06:58:11;100654.97;;;17.58;86.89
76260;BME280;65076;52.362;6.588;2023-07-31T07:00:39;100657.19;;;17.53;86.07
76260;BME280;65076;52.362;6.588;2023-07-31T07:03:07;100649.00;;;17.75;85.82
76260;BME280;65076;52.362;6.588;2023-07-31T07:05:35;100656.13;;;17.89;85.39
76260;BME280;65076;52.362;6.588;2023-07-31T07:08:03;100648.63;;;17.80;85.26
76260;BME280;65076;52.362;6.588;2023-07-31T07:10:32;100648.03;;;17.65;85.92
76260;BME280;65076;52.362;6.588;2023-07-31T07:13:00;100648.28;;;17.85;86.00
76260;BME280;65076;52.362;6.588;2023-07-31T07:15:28;100637.19;;;17.97;85.98
76260;BME280;65076;52.362;6.588;2023-07-31T07:17:56;100647.75;;;17.91;86.41
76260;BME280;65076;52.362;6.588;2023-07-31T07:20:24;100644.66;;;17.62;87.26
76260;BME280;65076;52.362;6.588;2023-07-31T07:22:52;100639.06;;;17.97;86.07
76260;BME280;65076;52.362;6.588;2023-07-31T07:25:20;100630.63;;;17.77;86.05
76260;BME280;65076;52.362;6.588;2023-07-31T07:27:50;100631.72;;;17.75;86.63
76260;BME280;65076;52.362;6.588;2023-07-31T07:30:18;100623.47;;;18.08;86.40
76260;BME280;65076;52.362;6.588;2023-07-31T07:32:46;100615.75;;;18.13;85.91
76260;BME280;65076;52.362;6.588;2023-07-31T07:35:14;100592.59;;;18.17;86.42
76260;BME280;65076;52.362;6.588;2023-07-31T07:37:42;100621.13;;;18.04;85.95
76260;BME280;65076;52.362;6.588;2023-07-31T07:40:10;100610.28;;;18.02;85.65
76260;BME280;65076;52.362;6.588;2023-07-31T07:42:38;100612.81;;;17.94;87.03
76260;BME280;65076;52.362;6.588;2023-07-31T07:45:09;100618.13;;;17.96;87.02
76260;BME280;65076;52.362;6.588;2023-07-31T07:47:38;100614.50;;;18.06;87.19
76260;BME280;65076;52.362;6.588;2023-07-31T07:50:07;100618.00;;;18.08;87.30
76260;BME280;65076;52.362;6.588;2023-07-31T07:52:35;100604.44;;;17.96;88.25
76260;BME280;65076;52.362;6.588;2023-07-31T07:55:04;100602.28;;;18.21;88.17
76260;BME280;65076;52.362;6.588;2023-07-31T07:57:33;100606.03;;;18.20;87.52
76260;BME280;65076;52.362;6.588;2023-07-31T08:00:00;100595.47;;;18.16;87.98
76260;BME280;65076;52.362;6.588;2023-07-31T08:02:30;100598.81;;;18.19;88.07
76260;BME280;65076;52.362;6.588;2023-07-31T08:04:58;100597.91;;;18.30;88.31
76260;BME280;65076;52.362;6.588;2023-07-31T08:07:25;100601.50;;;18.42;88.06
76260;BME280;65076;52.362;6.588;2023-07-31T08:09:54;100585.31;;;18.39;88.53
76260;BME280;65076;52.362;6.588;2023-07-31T08:12:22;100590.66;;;18.40;88.60
76260;BME280;65076;52.362;6.588;2023-07-31T08:14:50;100591.34;;;18.53;87.06
76260;BME280;65076;52.362;6.588;2023-07-31T08:17:18;100593.75;;;18.47;87.03
76260;BME280;65076;52.362;6.588;2023-07-31T08:19:47;100585.81;;;18.33;87.06
76260;BME280;65076;52.362;6.588;2023-07-31T08:22:15;100586.75;;;18.54;87.04
76260;BME280;65076;52.362;6.588;2023-07-31T08:24:43;100581.28;;;18.43;87.35
76260;BME280;65076;52.362;6.588;2023-07-31T08:27:11;100581.53;;;18.51;87.31
76260;BME280;65076;52.362;6.588;2023-07-31T08:29:39;100575.28;;;18.60;88.05
76260;BME280;65076;52.362;6.588;2023-07-31T08:32:07;100575.69;;;18.44;87.35
76260;BME280;65076;52.362;6.588;2023-07-31T08:34:35;100574.41;;;18.59;87.36
76260;BME280;65076;52.362;6.588;2023-07-31T08:37:05;100570.22;;;18.44;87.47
76260;BME280;65076;52.362;6.588;2023-07-31T08:39:32;100569.34;;;18.44;87.38
76260;BME280;65076;52.362;6.588;2023-07-31T08:42:00;100571.22;;;18.43;88.54
76260;BME280;65076;52.362;6.588;2023-07-31T08:44:29;100564.16;;;18.30;88.17
76260;BME280;65076;52.362;6.588;2023-07-31T08:46:59;100570.75;;;18.27;89.98
76260;BME280;65076;52.362;6.588;2023-07-31T08:49:31;100577.34;;;18.36;89.32
76260;BME280;65076;52.362;6.588;2023-07-31T08:51:59;100572.31;;;18.52;88.62
76260;BME280;65076;52.362;6.588;2023-07-31T08:54:29;100563.84;;;18.55;88.84
76260;BME280;65076;52.362;6.588;2023-07-31T08:57:00;100564.44;;;18.58;88.03
76260;BME280;65076;52.362;6.588;2023-07-31T08:59:31;100560.94;;;18.68;88.76
76260;BME280;65076;52.362;6.588;2023-07-31T09:02:05;100562.81;;;18.67;88.89
76260;BME280;65076;52.362;6.588;2023-07-31T09:04:35;100560.38;;;18.74;88.44
76260;BME280;65076;52.362;6.588;2023-07-31T09:07:04;100557.03;;;18.70;87.86
76260;BME280;65076;52.362;6.588;2023-07-31T09:09:35;100565.31;;;18.59;89.89
76260;BME280;65076;52.362;6.588;2023-07-31T09:12:04;100559.78;;;18.70;88.96
76260;BME280;65076;52.362;6.588;2023-07-31T09:14:34;100566.28;;;18.90;87.58
76260;BME280;65076;52.362;6.588;2023-07-31T09:17:04;100559.13;;;18.98;87.35
76260;BME280;65076;52.362;6.588;2023-07-31T09:19:34;100559.06;;;18.89;88.03
76260;BME280;65076;52.362;6.588;2023-07-31T09:22:04;100556.97;;;18.81;88.13
76260;BME280;65076;52.362;6.588;2023-07-31T09:24:35;100554.38;;;18.80;88.58
76260;BME280;65076;52.362;6.588;2023-07-31T09:27:03;100556.28;;;18.47;89.05
76260;BME280;65076;52.362;6.588;2023-07-31T09:29:33;100552.72;;;18.68;88.80
76260;BME280;65076;52.362;6.588;2023-07-31T09:32:01;100562.66;;;18.69;89.49
76260;BME280;65076;52.362;6.588;2023-07-31T09:34:36;100563.22;;;18.63;89.32
76260;BME280;65076;52.362;6.588;2023-07-31T09:37:05;100552.91;;;18.76;87.71
76260;BME280;65076;52.362;6.588;2023-07-31T09:39:45;100539.25;;;18.65;88.89
76260;BME280;65076;52.362;6.588;2023-07-31T09:42:24;100541.53;;;18.59;89.71
76260;BME280;65076;52.362;6.588;2023-07-31T09:45:06;100542.88;;;18.65;90.92
76260;BME280;65076;52.362;6.588;2023-07-31T09:47:35;100540.88;;;18.67;89.91
76260;BME280;65076;52.362;6.588;2023-07-31T09:50:07;100542.47;;;18.70;90.21
76260;BME280;65076;52.362;6.588;2023-07-31T09:52:38;100540.81;;;18.46;89.78
76260;BME280;65076;52.362;6.588;2023-07-31T09:55:08;100533.53;;;18.68;90.62
76260;BME280;65076;52.362;6.588;2023-07-31T09:57:39;100528.91;;;18.68;89.80
76260;BME280;65076;52.362;6.588;2023-07-31T10:00:10;100526.81;;;18.81;90.18
76260;BME280;65076;52.362;6.588;2023-07-31T10:02:39;100524.16;;;18.91;89.20
76260;BME280;65076;52.362;6.588;2023-07-31T10:05:08;100526.00;;;18.90;89.07
76260;BME280;65076;52.362;6.588;2023-07-31T10:07:38;100523.28;;;18.90;88.70
76260;BME280;65076;52.362;6.588;2023-07-31T10:10:11;100520.22;;;18.84;89.70
76260;BME280;65076;52.362;6.588;2023-07-31T10:12:43;100529.63;;;18.91;90.26
76260;BME280;65076;52.362;6.588;2023-07-31T10:15:14;100525.88;;;18.92;89.27
76260;BME280;65076;52.362;6.588;2023-07-31T10:17:43;100526.16;;;18.89;89.22
76260;BME280;65076;52.362;6.588;2023-07-31T10:20:12;100530.72;;;18.99;90.42
76260;BME280;65076;52.362;6.588;2023-07-31T10:22:43;100533.56;;;19.19;89.47
76260;BME280;65076;52.362;6.588;2023-07-31T10:25:15;100519.84;;;19.19;90.04
76260;BME280;65076;52.362;6.588;2023-07-31T10:27:44;100532.16;;;19.03;90.19
76260;BME280;65076;52.362;6.588;2023-07-31T10:30:17;100527.31;;;19.17;88.32
76260;BME280;65076;52.362;6.588;2023-07-31T10:32:51;100528.22;;;19.27;89.15
76260;BME280;65076;52.362;6.588;2023-07-31T10:35:21;100519.53;;;19.22;88.03
76260;BME280;65076;52.362;6.588;2023-07-31T10:37:49;100522.59;;;19.19;87.72
76260;BME280;65076;52.362;6.588;2023-07-31T10:40:24;100524.16;;;19.21;88.81
76260;BME280;65076;52.362;6.588;2023-07-31T10:42:56;100518.59;;;19.32;87.99
76260;BME280;65076;52.362;6.588;2023-07-31T10:45:25;100515.81;;;19.53;87.83
76260;BME280;65076;52.362;6.588;2023-07-31T10:47:59;100517.78;;;19.41;88.03
76260;BME280;65076;52.362;6.588;2023-07-31T10:50:29;100510.06;;;19.56;87.25
76260;BME280;65076;52.362;6.588;2023-07-31T10:52:59;100503.84;;;19.54;88.01
76260;BME280;65076;52.362;6.588;2023-07-31T10:55:31;100514.81;;;19.54;87.01
76260;BME280;65076;52.362;6.588;2023-07-31T10:58:08;100518.28;;;19.26;87.36
76260;BME280;65076;52.362;6.588;2023-07-31T11:00:38;100511.03;;;19.45;88.05
76260;BME280;65076;52.362;6.588;2023-07-31T11:03:09;100510.88;;;19.47;87.29
76260;BME280;65076;52.362;6.588;2023-07-31T11:05:52;100510.56;;;19.40;86.30
76260;BME280;65076;52.362;6.588;2023-07-31T11:08:22;100507.63;;;19.32;86.90
76260;BME280;65076;52.362;6.588;2023-07-31T11:11:05;100503.31;;;19.39;87.36
76260;BME280;65076;52.362;6.588;2023-07-31T11:13:40;100508.53;;;19.73;85.76
76260;BME280;65076;52.362;6.588;2023-07-31T11:16:12;100506.81;;;19.41;86.32
76260;BME280;65076;52.362;6.588;2023-07-31T11:18:41;100514.09;;;19.31;87.17
76260;BME280;65076;52.362;6.588;2023-07-31T11:21:12;100496.81;;;19.71;87.14
76260;BME280;65076;52.362;6.588;2023-07-31T11:23:41;100501.22;;;19.53;87.21
76260;BME280;65076;52.362;6.588;2023-07-31T11:26:14;100505.66;;;19.44;86.53
76260;BME280;65076;52.362;6.588;2023-07-31T11:28:45;100508.03;;;19.28;88.32
76260;BME280;65076;52.362;6.588;2023-07-31T11:31:14;100504.84;;;19.53;87.23
76260;BME280;65076;52.362;6.588;2023-07-31T11:33:43;100509.78;;;19.59;86.66
76260;BME280;65076;52.362;6.588;2023-07-31T11:36:14;100508.28;;;19.15;88.30
76260;BME280;65076;52.362;6.588;2023-07-31T11:38:43;100494.41;;;19.47;88.21
76260;BME280;65076;52.362;6.588;2023-07-31T11:41:15;100502.84;;;19.65;86.82
76260;BME280;65076;52.362;6.588;2023-07-31T11:43:45;100506.91;;;19.61;86.69
76260;BME280;65076;52.362;6.588;2023-07-31T11:46:13;100508.63;;;19.52;86.31
76260;BME280;65076;52.362;6.588;2023-07-31T11:48:42;100503.03;;;19.73;85.48
76260;BME280;65076;52.362;6.588;2023-07-31T11:51:12;100504.84;;;19.53;85.94
76260;BME280;65076;52.362;6.588;2023-07-31T11:53:43;100507.06;;;19.38;86.84
76260;BME280;65076;52.362;6.588;2023-07-31T11:56:16;100508.31;;;19.55;86.71
76260;BME280;65076;52.362;6.588;2023-07-31T11:58:46;100515.44;;;19.37;87.00
76260;BME280;65076;52.362;6.588;2023-07-31T12:01:17;100511.63;;;19.49;87.24
76260;BME280;65076;52.362;6.588;2023-07-31T12:03:48;100506.25;;;19.48;85.52
76260;BME280;65076;52.362;6.588;2023-07-31T12:06:17;100510.25;;;19.43;86.97
76260;BME280;65076;52.362;6.588;2023-07-31T12:08:47;100499.97;;;19.66;85.95
76260;BME280;65076;52.362;6.588;2023-07-31T12:11:17;100489.19;;;19.44;87.86
76260;BME280;65076;52.362;6.588;2023-07-31T12:13:45;100496.44;;;19.45;87.88
76260;BME280;65076;52.362;6.588;2023-07-31T12:16:13;100496.78;;;19.61;87.19
76260;BME280;65076;52.362;6.588;2023-07-31T12:18:41;100499.69;;;19.69;86.57
76260;BME280;65076;52.362;6.588;2023-07-31T12:21:09;100495.13;;;19.99;85.54
76260;BME280;65076;52.362;6.588;2023-07-31T12:23:38;100494.41;;;20.06;85.63
76260;BME280;65076;52.362;6.588;2023-07-31T12:26:12;100495.44;;;20.24;84.84
76260;BME280;65076;52.362;6.588;2023-07-31T12:28:44;100495.16;;;20.47;83.45
76260;BME280;65076;52.362;6.588;2023-07-31T12:31:15;100497.47;;;20.13;84.68
76260;BME280;65076;52.362;6.588;2023-07-31T12:33:45;100496.34;;;20.44;83.11
76260;BME280;65076;52.362;6.588;2023-07-31T12:36:16;100493.13;;;20.58;82.58
76260;BME280;65076;52.362;6.588;2023-07-31T12:38:46;100498.47;;;20.21;83.29
76260;BME280;65076;52.362;6.588;2023-07-31T12:41:13;100498.63;;;20.20;83.65
76260;BME280;65076;52.362;6.588;2023-07-31T12:43:44;100488.34;;;20.03;84.05
76260;BME280;65076;52.362;6.588;2023-07-31T12:46:13;100495.88;;;20.20;84.99
76260;BME280;65076;52.362;6.588;2023-07-31T12:48:41;100489.34;;;20.21;85.04
76260;BME280;65076;52.362;6.588;2023-07-31T12:51:09;100491.66;;;20.16;85.26
76260;BME280;65076;52.362;6.588;2023-07-31T12:53:38;100492.09;;;20.02;85.92
76260;BME280;65076;52.362;6.588;2023-07-31T12:56:05;100489.31;;;19.82;85.36
76260;BME280;65076;52.362;6.588;2023-07-31T12:58:34;100485.72;;;19.92;86.63
76260;BME280;65076;52.362;6.588;2023-07-31T13:01:03;100490.09;;;20.23;86.08